sensor_id;sensor_type;location;lat;lon;timestamp;pressure;altitude;pressure_sealevel;temperature;humidity
62124;BME280;48110;47.532;19.078;2022-12-07T00:02:52;100352.34;;;1.71;100.00
62124;BME280;48110;47.532;19.078;2022-12-07T00:05:58;100361.44;;;1.78;100.00
62124;BME280;48110;47.532;19.078;2022-12-07T00:09:05;100346.63;;;1.66;100.00
62124;BME280;48110;47.532;19.078;2022-12-07T00:12:12;100342.50;;;1.51;100.00
62124;BME280;48110;47.532;19.078;2022-12-07T00:15:18;100341.00;;;1.36;100.00
62124;BME280;48110;47.532;19.078;2022-12-07T00:18:25;100332.59;;;1.19;100.00
62124;BME280;48110;47.532;19.078;2022-12-07T00:21:32;100328.34;;;1.06;100.00
62124;BME280;48110;47.532;19.078;2022-12-07T00:24:41;100321.47;;;0.92;100.00
62124;BME280;48110;47.532;19.078;2022-12-07T00:27:46;100315.22;;;0.95;100.00
62124;BME280;48110;47.532;19.078;2022-12-07T00:31:06;100318.47;;;0.85;100.00
62124;BME280;48110;47.532;19.078;2022-12-07T00:34:16;100320.06;;;0.75;100.00
62124;BME280;48110;47.532;19.078;2022-12-07T00:37:26;100312.03;;;0.66;100.00
62124;BME280;48110;47.532;19.078;2022-12-07T00:40:31;100313.50;;;0.57;100.00
62124;BME280;48110;47.532;19.078;2022-12-07T00:43:37;100307.87;;;0.51;100.00
62124;BME280;48110;47.532;19.078;2022-12-07T00:46:44;100312.78;;;0.42;100.00
62124;BME280;48110;47.532;19.078;2022-12-07T00:49:52;100313.94;;;0.38;100.00
62124;BME280;48110;47.532;19.078;2022-12-07T00:53:00;100312.25;;;0.37;100.00
62124;BME280;48110;47.532;19.078;2022-12-07T00:56:10;100319.16;;;0.38;100.00
62124;BME280;48110;47.532;19.078;2022-12-07T00:59:18;100318.41;;;0.36;100.00
62124;BME280;48110;47.532;19.078;2022-12-07T01:02:28;100309.66;;;0.37;100.00
62124;BME280;48110;47.532;19.078;2022-12-07T01:05:36;100301.50;;;0.29;100.00
62124;BME280;48110;47.532;19.078;2022-12-07T01:08:44;100297.13;;;0.30;100.00
62124;BME280;48110;47.532;19.078;2022-12-07T01:11:51;100298.06;;;0.29;100.00
62124;BME280;48110;47.532;19.078;2022-12-07T01:14:57;100292.13;;;0.27;100.00
62124;BME280;48110;47.532;19.078;2022-12-07T01:18:04;100298.34;;;0.24;100.00
62124;BME280;48110;47.532;19.078;2022-12-07T01:21:14;100301.28;;;0.20;100.00
62124;BME280;48110;47.532;19.078;2022-12-07T01:24:23;100299.81;;;0.16;100.00
62124;BME280;48110;47.532;19.078;2022-12-07T01:27:32;100313.19;;;0.11;100.00
62124;BME280;48110;47.532;19.078;2022-12-07T01:30:38;100305.75;;;0.05;100.00
62124;BME280;48110;47.532;19.078;2022-12-07T01:33:47;100301.91;;;-0.02;100.00
62124;BME280;48110;47.532;19.078;2022-12-07T01:36:55;100301.06;;;-0.03;100.00
62124;BME280;48110;47.532;19.078;2022-12-07T01:40:04;100297.22;;;0.03;100.00
62124;BME280;48110;47.532;19.078;2022-12-07T01:43:16;100301.59;;;0.03;100.00
62124;BME280;48110;47.532;19.078;2022-12-07T01:46:25;100298.47;;;-0.03;100.00
62124;BME280;48110;47.532;19.078;2022-12-07T01:49:46;100303.59;;;-0.01;100.00
62124;BME280;48110;47.532;19.078;2022-12-07T01:52:56;100297.00;;;0.06;100.00
62124;BME280;48110;47.532;19.078;2022-12-07T01:56:05;100293.69;;;0.17;100.00
62124;BME280;48110;47.532;19.078;2022-12-07T01:59:17;100295.47;;;0.29;100.00
62124;BME280;48110;47.532;19.078;2022-12-07T02:02:29;100295.03;;;0.48;100.00
62124;BME280;48110;47.532;19.078;2022-12-07T02:05:38;100289.47;;;0.65;100.00
62124;BME280;48110;47.532;19.078;2022-12-07T02:08:46;100286.94;;;0.76;100.00
62124;BME280;48110;47.532;19.078;2022-12-07T02:11:52;100291.69;;;0.95;100.00
62124;BME280;48110;47.532;19.078;2022-12-07T02:14:57;100295.94;;;1.08;100.00
62124;BME280;48110;47.532;19.078;2022-12-07T02:18:07;100289.22;;;1.17;100.00
62124;BME280;48110;47.532;19.078;2022-12-07T02:30:46;100286.16;;;1.47;100.00
62124;BME280;48110;47.532;19.078;2022-12-07T02:33:57;100286.28;;;1.45;100.00
62124;BME280;48110;47.532;19.078;2022-12-07T02:37:18;100279.59;;;1.41;100.00
62124;BME280;48110;47.532;19.078;2022-12-07T02:46:50;100280.72;;;1.50;100.00
62124;BME280;48110;47.532;19.078;2022-12-07T02:49:59;100283.09;;;1.53;100.00
62124;BME280;48110;47.532;19.078;2022-12-07T02:53:27;100288.72;;;1.59;100.00
62124;BME280;48110;47.532;19.078;2022-12-07T03:03:00;100273.69;;;1.74;100.00
62124;BME280;48110;47.532;19.078;2022-12-07T03:06:16;100272.34;;;1.68;100.00
62124;BME280;48110;47.532;19.078;2022-12-07T03:09:37;100266.75;;;1.62;100.00
62124;BME280;48110;47.532;19.078;2022-12-07T03:13:01;100263.22;;;1.74;100.00
62124;BME280;48110;47.532;19.078;2022-12-07T03:16:18;100261.56;;;1.73;100.00
62124;BME280;48110;47.532;19.078;2022-12-07T03:19:27;100261.75;;;1.70;100.00
62124;BME280;48110;47.532;19.078;2022-12-07T03:22:34;100260.59;;;1.74;100.00
62124;BME280;48110;47.532;19.078;2022-12-07T03:25:43;100257.50;;;1.80;100.00
62124;BME280;48110;47.532;19.078;2022-12-07T03:28:52;100257.06;;;1.86;100.00
62124;BME280;48110;47.532;19.078;2022-12-07T03:32:16;100260.03;;;1.82;100.00
62124;BME280;48110;47.532;19.078;2022-12-07T03:39:00;100256.59;;;1.92;100.00
62124;BME280;48110;47.532;19.078;2022-12-07T03:42:08;100273.72;;;1.96;100.00
62124;BME280;48110;47.532;19.078;2022-12-07T03:45:16;100274.31;;;2.00;100.00
62124;BME280;48110;47.532;19.078;2022-12-07T03:48:41;100273.28;;;2.02;100.00
62124;BME280;48110;47.532;19.078;2022-12-07T03:51:54;100279.09;;;2.06;100.00
62124;BME280;48110;47.532;19.078;2022-12-07T03:58:16;100296.16;;;2.34;100.00
62124;BME280;48110;47.532;19.078;2022-12-07T04:01:25;100285.06;;;2.19;100.00
62124;BME280;48110;47.532;19.078;2022-12-07T04:04:36;100287.19;;;2.14;100.00
62124;BME280;48110;47.532;19.078;2022-12-07T04:07:43;100288.13;;;2.02;100.00
62124;BME280;48110;47.532;19.078;2022-12-07T04:10:50;100285.25;;;1.83;100.00
62124;BME280;48110;47.532;19.078;2022-12-07T04:13:56;100282.47;;;1.73;100.00
62124;BME280;48110;47.532;19.078;2022-12-07T04:17:22;100290.09;;;1.76;100.00
62124;BME280;48110;47.532;19.078;2022-12-07T04:20:28;100289.25;;;1.75;100.00
62124;BME280;48110;47.532;19.078;2022-12-07T04:23:37;100289.03;;;1.79;100.00
62124;BME280;48110;47.532;19.078;2022-12-07T04:26:44;100294.03;;;1.82;100.00
62124;BME280;48110;47.532;19.078;2022-12-07T04:29:55;100294.97;;;1.81;100.00
62124;BME280;48110;47.532;19.078;2022-12-07T04:33:05;100291.06;;;1.86;100.00
62124;BME280;48110;47.532;19.078;2022-12-07T04:36:16;100293.44;;;1.89;100.00
62124;BME280;48110;47.532;19.078;2022-12-07T04:39:27;100287.66;;;1.97;100.00
62124;BME280;48110;47.532;19.078;2022-12-07T04:42:36;100279.34;;;2.03;100.00
62124;BME280;48110;47.532;19.078;2022-12-07T04:45:45;100283.63;;;2.15;100.00
62124;BME280;48110;47.532;19.078;2022-12-07T04:48:52;100286.00;;;2.07;100.00
62124;BME280;48110;47.532;19.078;2022-12-07T04:52:02;100294.69;;;2.07;100.00
62124;BME280;48110;47.532;19.078;2022-12-07T04:55:07;100295.78;;;2.16;100.00
62124;BME280;48110;47.532;19.078;2022-12-07T04:58:13;100294.37;;;2.34;100.00
62124;BME280;48110;47.532;19.078;2022-12-07T05:01:21;100291.66;;;2.36;100.00
62124;BME280;48110;47.532;19.078;2022-12-07T05:04:28;100277.37;;;2.51;100.00
62124;BME280;48110;47.532;19.078;2022-12-07T05:07:37;100283.19;;;2.43;100.00
62124;BME280;48110;47.532;19.078;2022-12-07T05:10:44;100277.84;;;2.45;100.00
62124;BME280;48110;47.532;19.078;2022-12-07T05:13:50;100265.72;;;2.55;100.00
62124;BME280;48110;47.532;19.078;2022-12-07T05:16:56;100271.78;;;2.55;100.00
62124;BME280;48110;47.532;19.078;2022-12-07T05:20:05;100264.03;;;2.54;100.00
62124;BME280;48110;47.532;19.078;2022-12-07T05:23:11;100255.72;;;2.60;100.00
62124;BME280;48110;47.532;19.078;2022-12-07T05:26:19;100255.56;;;2.61;100.00
62124;BME280;48110;47.532;19.078;2022-12-07T05:29:24;100261.63;;;2.62;100.00
62124;BME280;48110;47.532;19.078;2022-12-07T05:32:32;100262.47;;;2.62;100.00
62124;BME280;48110;47.532;19.078;2022-12-07T05:35:38;100253.78;;;2.62;100.00
62124;BME280;48110;47.532;19.078;2022-12-07T05:38:45;100252.84;;;2.63;100.00
62124;BME280;48110;47.532;19.078;2022-12-07T05:41:52;100254.50;;;2.64;100.00
62124;BME280;48110;47.532;19.078;2022-12-07T05:45:19;100257.97;;;2.65;100.00
62124;BME280;48110;47.532;19.078;2022-12-07T05:48:25;100254.88;;;2.71;100.00
62124;BME280;48110;47.532;19.078;2022-12-07T05:51:31;100262.59;;;2.72;100.00
62124;BME280;48110;47.532;19.078;2022-12-07T05:54:38;100253.91;;;2.72;100.00
62124;BME280;48110;47.532;19.078;2022-12-07T05:57:45;100253.31;;;2.79;100.00
62124;BME280;48110;47.532;19.078;2022-12-07T06:01:10;100263.31;;;2.74;100.00
62124;BME280;48110;47.532;19.078;2022-12-07T06:04:15;100274.00;;;2.71;100.00
62124;BME280;48110;47.532;19.078;2022-12-07T06:07:21;100274.47;;;2.76;100.00
62124;BME280;48110;47.532;19.078;2022-12-07T06:10:27;100272.22;;;2.72;100.00
62124;BME280;48110;47.532;19.078;2022-12-07T06:13:33;100265.34;;;2.71;100.00
62124;BME280;48110;47.532;19.078;2022-12-07T06:16:38;100272.69;;;2.77;100.00
62124;BME280;48110;47.532;19.078;2022-12-07T06:19:42;100279.12;;;2.73;100.00
62124;BME280;48110;47.532;19.078;2022-12-07T06:22:48;100271.88;;;2.76;100.00
62124;BME280;48110;47.532;19.078;2022-12-07T06:25:55;100271.06;;;2.76;100.00
62124;BME280;48110;47.532;19.078;2022-12-07T06:29:03;100270.09;;;2.77;100.00
62124;BME280;48110;47.532;19.078;2022-12-07T06:32:08;100271.97;;;2.97;100.00
62124;BME280;48110;47.532;19.078;2022-12-07T06:35:12;100274.94;;;2.92;100.00
62124;BME280;48110;47.532;19.078;2022-12-07T06:38:16;100272.69;;;2.88;100.00
62124;BME280;48110;47.532;19.078;2022-12-07T06:41:21;100274.09;;;3.03;100.00
62124;BME280;48110;47.532;19.078;2022-12-07T06:44:24;100276.81;;;3.13;100.00
62124;BME280;48110;47.532;19.078;2022-12-07T06:47:27;100277.66;;;3.13;100.00
62124;BME280;48110;47.532;19.078;2022-12-07T06:50:46;100278.59;;;3.12;100.00
62124;BME280;48110;47.532;19.078;2022-12-07T06:53:57;100288.25;;;3.23;100.00
62124;BME280;48110;47.532;19.078;2022-12-07T06:57:00;100281.06;;;3.25;100.00
62124;BME280;48110;47.532;19.078;2022-12-07T07:00:04;100288.47;;;3.20;100.00
62124;BME280;48110;47.532;19.078;2022-12-07T07:03:07;100292.62;;;3.33;100.00
62124;BME280;48110;47.532;19.078;2022-12-07T07:06:11;100286.22;;;3.15;100.00
62124;BME280;48110;47.532;19.078;2022-12-07T07:09:15;100286.38;;;2.91;100.00
62124;BME280;48110;47.532;19.078;2022-12-07T07:12:20;100297.22;;;2.87;100.00
62124;BME280;48110;47.532;19.078;2022-12-07T07:15:24;100292.22;;;2.73;100.00
62124;BME280;48110;47.532;19.078;2022-12-07T07:18:28;100278.56;;;2.58;100.00
62124;BME280;48110;47.532;19.078;2022-12-07T07:21:32;100299.88;;;2.65;100.00
62124;BME280;48110;47.532;19.078;2022-12-07T07:24:36;100288.81;;;2.61;100.00
62124;BME280;48110;47.532;19.078;2022-12-07T07:27:40;100299.97;;;2.63;100.00
62124;BME280;48110;47.532;19.078;2022-12-07T07:30:43;100294.16;;;2.71;100.00
62124;BME280;48110;47.532;19.078;2022-12-07T07:33:47;100295.81;;;2.83;100.00
62124;BME280;48110;47.532;19.078;2022-12-07T07:36:52;100292.34;;;2.71;100.00
62124;BME280;48110;47.532;19.078;2022-12-07T07:39:56;100294.37;;;2.79;100.00
62124;BME280;48110;47.532;19.078;2022-12-07T07:42:59;100292.59;;;2.90;100.00
62124;BME280;48110;47.532;19.078;2022-12-07T07:46:03;100289.81;;;3.03;100.00
62124;BME280;48110;47.532;19.078;2022-12-07T07:49:08;100284.31;;;3.17;100.00
62124;BME280;48110;47.532;19.078;2022-12-07T07:52:12;100284.87;;;3.32;100.00
62124;BME280;48110;47.532;19.078;2022-12-07T07:55:18;100291.25;;;3.39;100.00
62124;BME280;48110;47.532;19.078;2022-12-07T07:58:22;100298.78;;;3.75;100.00
62124;BME280;48110;47.532;19.078;2022-12-07T08:01:27;100299.03;;;3.72;100.00
62124;BME280;48110;47.532;19.078;2022-12-07T08:04:31;100294.56;;;3.84;100.00
62124;BME280;48110;47.532;19.078;2022-12-07T08:07:36;100300.38;;;3.87;100.00
62124;BME280;48110;47.532;19.078;2022-12-07T08:10:40;100305.53;;;3.57;100.00
62124;BME280;48110;47.532;19.078;2022-12-07T08:13:44;100295.72;;;3.59;100.00
62124;BME280;48110;47.532;19.078;2022-12-07T08:16:48;100296.09;;;3.34;100.00
62124;BME280;48110;47.532;19.078;2022-12-07T08:19:51;100302.81;;;3.47;100.00
62124;BME280;48110;47.532;19.078;2022-12-07T08:22:56;100311.66;;;3.46;100.00
62124;BME280;48110;47.532;19.078;2022-12-07T08:26:00;100304.13;;;3.53;100.00
62124;BME280;48110;47.532;19.078;2022-12-07T08:29:04;100312.56;;;3.57;100.00
62124;BME280;48110;47.532;19.078;2022-12-07T08:32:08;100314.47;;;3.86;100.00
62124;BME280;48110;47.532;19.078;2022-12-07T08:35:13;100312.88;;;4.16;100.00
62124;BME280;48110;47.532;19.078;2022-12-07T08:38:18;100322.50;;;4.06;100.00
62124;BME280;48110;47.532;19.078;2022-12-07T08:41:23;100325.75;;;4.19;100.00
62124;BME280;48110;47.532;19.078;2022-12-07T08:44:28;100324.63;;;4.42;100.00
62124;BME280;48110;47.532;19.078;2022-12-07T08:47:34;100322.22;;;4.50;100.00
62124;BME280;48110;47.532;19.078;2022-12-07T08:50:40;100324.84;;;4.50;100.00
62124;BME280;48110;47.532;19.078;2022-12-07T08:53:52;100320.69;;;4.78;100.00
62124;BME280;48110;47.532;19.078;2022-12-07T08:56:57;100328.09;;;5.03;100.00
62124;BME280;48110;47.532;19.078;2022-12-07T09:00:03;100328.72;;;5.26;100.00
62124;BME280;48110;47.532;19.078;2022-12-07T09:03:07;100329.69;;;5.35;100.00
62124;BME280;48110;47.532;19.078;2022-12-07T09:06:12;100321.75;;;5.06;100.00
62124;BME280;48110;47.532;19.078;2022-12-07T09:09:16;100325.81;;;5.29;100.00
62124;BME280;48110;47.532;19.078;2022-12-07T09:12:21;100332.59;;;5.22;100.00
62124;BME280;48110;47.532;19.078;2022-12-07T09:15:25;100329.13;;;5.21;100.00
62124;BME280;48110;47.532;19.078;2022-12-07T09:18:28;100331.38;;;5.36;100.00
62124;BME280;48110;47.532;19.078;2022-12-07T09:21:32;100323.06;;;5.31;100.00
62124;BME280;48110;47.532;19.078;2022-12-07T09:24:38;100319.56;;;5.20;100.00
62124;BME280;48110;47.532;19.078;2022-12-07T09:27:41;100305.34;;;5.52;100.00
62124;BME280;48110;47.532;19.078;2022-12-07T09:30:45;100309.22;;;5.48;100.00
62124;BME280;48110;47.532;19.078;2022-12-07T09:34:10;100302.56;;;5.53;100.00
62124;BME280;48110;47.532;19.078;2022-12-07T09:37:14;100312.44;;;5.51;100.00
62124;BME280;48110;47.532;19.078;2022-12-07T09:40:19;100303.41;;;5.44;100.00
62124;BME280;48110;47.532;19.078;2022-12-07T09:43:24;100307.16;;;5.42;100.00
62124;BME280;48110;47.532;19.078;2022-12-07T09:46:28;100302.03;;;5.69;100.00
62124;BME280;48110;47.532;19.078;2022-12-07T09:49:34;100295.25;;;5.66;100.00
62124;BME280;48110;47.532;19.078;2022-12-07T09:52:38;100289.59;;;6.00;100.00
62124;BME280;48110;47.532;19.078;2022-12-07T09:55:42;100292.22;;;6.09;100.00
62124;BME280;48110;47.532;19.078;2022-12-07T09:58:45;100292.34;;;6.08;100.00
62124;BME280;48110;47.532;19.078;2022-12-07T10:01:49;100290.69;;;5.97;100.00
62124;BME280;48110;47.532;19.078;2022-12-07T10:04:52;100287.59;;;6.21;100.00
62124;BME280;48110;47.532;19.078;2022-12-07T10:07:56;100284.28;;;6.29;100.00
62124;BME280;48110;47.532;19.078;2022-12-07T10:11:03;100284.00;;;6.22;100.00
62124;BME280;48110;47.532;19.078;2022-12-07T10:14:13;100276.12;;;6.12;100.00
62124;BME280;48110;47.532;19.078;2022-12-07T10:17:32;100276.03;;;6.41;100.00
62124;BME280;48110;47.532;19.078;2022-12-07T10:20:35;100284.66;;;6.43;100.00
62124;BME280;48110;47.532;19.078;2022-12-07T10:24:02;100275.22;;;6.41;100.00
62124;BME280;48110;47.532;19.078;2022-12-07T10:27:18;100269.00;;;6.69;100.00
62124;BME280;48110;47.532;19.078;2022-12-07T10:30:25;100277.91;;;6.59;100.00
62124;BME280;48110;47.532;19.078;2022-12-07T10:36:35;100267.81;;;7.09;100.00
62124;BME280;48110;47.532;19.078;2022-12-07T10:39:52;100266.12;;;6.90;100.00
62124;BME280;48110;47.532;19.078;2022-12-07T10:43:04;100256.25;;;6.65;100.00
62124;BME280;48110;47.532;19.078;2022-12-07T10:46:13;100257.81;;;6.85;100.00
62124;BME280;48110;47.532;19.078;2022-12-07T10:56:12;100260.06;;;7.60;96.47
62124;BME280;48110;47.532;19.078;2022-12-07T10:59:27;100261.09;;;7.59;97.20
62124;BME280;48110;47.532;19.078;2022-12-07T11:12:20;100246.91;;;6.43;99.99
62124;BME280;48110;47.532;19.078;2022-12-07T11:22:23;100247.37;;;6.29;100.00
62124;BME280;48110;47.532;19.078;2022-12-07T11:25:32;100230.87;;;6.27;100.00
62124;BME280;48110;47.532;19.078;2022-12-07T11:28:53;100238.16;;;6.52;100.00
62124;BME280;48110;47.532;19.078;2022-12-07T11:32:11;100238.69;;;6.55;99.53
62124;BME280;48110;47.532;19.078;2022-12-07T11:35:25;100239.94;;;6.79;99.91
62124;BME280;48110;47.532;19.078;2022-12-07T11:38:54;100235.91;;;6.84;99.71
62124;BME280;48110;47.532;19.078;2022-12-07T11:42:16;100232.25;;;7.13;99.85
62124;BME280;48110;47.532;19.078;2022-12-07T11:45:26;100236.56;;;7.14;99.92
62124;BME280;48110;47.532;19.078;2022-12-07T11:51:34;100241.00;;;7.13;97.29
62124;BME280;48110;47.532;19.078;2022-12-07T11:54:40;100239.91;;;6.61;100.00
62124;BME280;48110;47.532;19.078;2022-12-07T11:57:44;100246.63;;;6.46;100.00
62124;BME280;48110;47.532;19.078;2022-12-07T12:00:50;100243.59;;;6.41;100.00
62124;BME280;48110;47.532;19.078;2022-12-07T12:07:15;100231.50;;;6.48;100.00
62124;BME280;48110;47.532;19.078;2022-12-07T12:10:44;100226.53;;;6.72;97.99
62124;BME280;48110;47.532;19.078;2022-12-07T12:23:48;100202.19;;;7.06;92.69
62124;BME280;48110;47.532;19.078;2022-12-07T12:26:57;100199.44;;;6.97;93.75
62124;BME280;48110;47.532;19.078;2022-12-07T12:30:04;100189.28;;;6.85;97.14
62124;BME280;48110;47.532;19.078;2022-12-07T12:39:27;100182.28;;;7.11;94.35
62124;BME280;48110;47.532;19.078;2022-12-07T12:42:43;100183.28;;;6.83;94.83
62124;BME280;48110;47.532;19.078;2022-12-07T12:45:46;100183.66;;;6.70;96.25
62124;BME280;48110;47.532;19.078;2022-12-07T12:48:50;100178.25;;;6.72;97.64
62124;BME280;48110;47.532;19.078;2022-12-07T12:55:17;100180.97;;;6.97;93.37
62124;BME280;48110;47.532;19.078;2022-12-07T12:58:28;100184.16;;;7.01;93.24
62124;BME280;48110;47.532;19.078;2022-12-07T13:04:48;100186.69;;;6.75;93.84
62124;BME280;48110;47.532;19.078;2022-12-07T13:10:56;100202.91;;;6.53;93.35
62124;BME280;48110;47.532;19.078;2022-12-07T13:17:55;100193.97;;;6.64;95.19
62124;BME280;48110;47.532;19.078;2022-12-07T13:24:07;100202.34;;;6.49;93.45
62124;BME280;48110;47.532;19.078;2022-12-07T13:27:13;100203.13;;;6.60;93.58
62124;BME280;48110;47.532;19.078;2022-12-07T13:30:19;100209.87;;;6.44;95.62
62124;BME280;48110;47.532;19.078;2022-12-07T13:33:24;100206.87;;;6.30;94.80
62124;BME280;48110;47.532;19.078;2022-12-07T13:36:37;100205.50;;;6.26;97.23
62124;BME280;48110;47.532;19.078;2022-12-07T13:39:45;100204.44;;;6.19;95.06
62124;BME280;48110;47.532;19.078;2022-12-07T13:42:57;100203.06;;;6.15;95.94
62124;BME280;48110;47.532;19.078;2022-12-07T13:46:02;100204.34;;;6.01;96.42
62124;BME280;48110;47.532;19.078;2022-12-07T13:49:29;100208.34;;;5.86;98.54
62124;BME280;48110;47.532;19.078;2022-12-07T13:52:34;100215.19;;;5.69;100.00
62124;BME280;48110;47.532;19.078;2022-12-07T13:55:46;100220.34;;;5.61;100.00
62124;BME280;48110;47.532;19.078;2022-12-07T13:58:56;100225.31;;;5.64;100.00
62124;BME280;48110;47.532;19.078;2022-12-07T14:02:16;100225.59;;;5.71;100.00
62124;BME280;48110;47.532;19.078;2022-12-07T14:05:28;100224.31;;;5.75;100.00
62124;BME280;48110;47.532;19.078;2022-12-07T14:08:31;100221.94;;;5.81;100.00
62124;BME280;48110;47.532;19.078;2022-12-07T14:11:36;100227.81;;;5.65;100.00
62124;BME280;48110;47.532;19.078;2022-12-07T14:14:40;100222.97;;;5.61;100.00
62124;BME280;48110;47.532;19.078;2022-12-07T14:17:51;100215.22;;;5.50;100.00
62124;BME280;48110;47.532;19.078;2022-12-07T14:21:05;100226.41;;;5.33;100.00
62124;BME280;48110;47.532;19.078;2022-12-07T14:24:15;100229.88;;;5.23;100.00
62124;BME280;48110;47.532;19.078;2022-12-07T14:27:21;100224.59;;;5.04;100.00
62124;BME280;48110;47.532;19.078;2022-12-07T14:30:34;100217.38;;;4.97;100.00
62124;BME280;48110;47.532;19.078;2022-12-07T14:33:38;100220.94;;;4.76;100.00
62124;BME280;48110;47.532;19.078;2022-12-07T14:36:42;100225.22;;;4.68;100.00
62124;BME280;48110;47.532;19.078;2022-12-07T14:39:46;100222.81;;;4.65;100.00
62124;BME280;48110;47.532;19.078;2022-12-07T14:42:51;100229.06;;;4.64;100.00
62124;BME280;48110;47.532;19.078;2022-12-07T14:45:57;100230.47;;;4.68;100.00
62124;BME280;48110;47.532;19.078;2022-12-07T14:49:02;100238.94;;;4.81;100.00
62124;BME280;48110;47.532;19.078;2022-12-07T14:52:27;100234.91;;;4.77;100.00
62124;BME280;48110;47.532;19.078;2022-12-07T14:55:52;100240.00;;;4.69;100.00
62124;BME280;48110;47.532;19.078;2022-12-07T14:58:56;100243.84;;;4.65;100.00
62124;BME280;48110;47.532;19.078;2022-12-07T15:02:01;100246.72;;;4.52;100.00
62124;BME280;48110;47.532;19.078;2022-12-07T15:05:05;100240.44;;;4.34;100.00
62124;BME280;48110;47.532;19.078;2022-12-07T15:08:15;100247.03;;;4.28;100.00
62124;BME280;48110;47.532;19.078;2022-12-07T15:11:18;100251.78;;;4.14;100.00
62124;BME280;48110;47.532;19.078;2022-12-07T15:14:21;100248.81;;;4.28;100.00
62124;BME280;48110;47.532;19.078;2022-12-07T15:17:24;100248.50;;;4.21;100.00
62124;BME280;48110;47.532;19.078;2022-12-07T15:20:33;100244.19;;;4.11;100.00
62124;BME280;48110;47.532;19.078;2022-12-07T15:23:36;100234.25;;;3.93;100.00
62124;BME280;48110;47.532;19.078;2022-12-07T15:26:39;100252.19;;;3.88;100.00
62124;BME280;48110;47.532;19.078;2022-12-07T15:29:42;100242.84;;;3.96;100.00
62124;BME280;48110;47.532;19.078;2022-12-07T15:32:50;100257.19;;;3.91;100.00
62124;BME280;48110;47.532;19.078;2022-12-07T15:35:54;100257.37;;;3.79;100.00
62124;BME280;48110;47.532;19.078;2022-12-07T15:38:58;100249.88;;;3.74;100.00
62124;BME280;48110;47.532;19.078;2022-12-07T15:42:18;100266.00;;;3.70;100.00
62124;BME280;48110;47.532;19.078;2022-12-07T15:45:23;100264.44;;;3.46;100.00
62124;BME280;48110;47.532;19.078;2022-12-07T15:48:28;100265.69;;;3.31;100.00
62124;BME280;48110;47.532;19.078;2022-12-07T15:51:33;100270.28;;;3.39;100.00
62124;BME280;48110;47.532;19.078;2022-12-07T15:54:36;100263.47;;;3.16;100.00
62124;BME280;48110;47.532;19.078;2022-12-07T15:57:41;100271.94;;;3.08;100.00
62124;BME280;48110;47.532;19.078;2022-12-07T16:00:47;100271.47;;;3.03;100.00
62124;BME280;48110;47.532;19.078;2022-12-07T16:03:56;100276.50;;;2.95;100.00
62124;BME280;48110;47.532;19.078;2022-12-07T16:07:01;100276.47;;;3.06;100.00
62124;BME280;48110;47.532;19.078;2022-12-07T16:10:06;100270.56;;;3.25;100.00
62124;BME280;48110;47.532;19.078;2022-12-07T16:13:12;100267.28;;;3.12;100.00
62124;BME280;48110;47.532;19.078;2022-12-07T16:16:19;100277.66;;;3.02;100.00
62124;BME280;48110;47.532;19.078;2022-12-07T16:19:25;100277.56;;;2.92;100.00
62124;BME280;48110;47.532;19.078;2022-12-07T16:22:30;100267.19;;;2.91;100.00
62124;BME280;48110;47.532;19.078;2022-12-07T16:25:35;100271.03;;;2.87;100.00
62124;BME280;48110;47.532;19.078;2022-12-07T16:28:40;100265.09;;;2.74;100.00
62124;BME280;48110;47.532;19.078;2022-12-07T16:31:46;100271.66;;;2.79;100.00
62124;BME280;48110;47.532;19.078;2022-12-07T16:34:55;100280.59;;;2.66;100.00
62124;BME280;48110;47.532;19.078;2022-12-07T16:38:02;100276.41;;;2.63;100.00
62124;BME280;48110;47.532;19.078;2022-12-07T16:41:09;100270.72;;;2.47;100.00
62124;BME280;48110;47.532;19.078;2022-12-07T16:44:15;100280.81;;;2.40;100.00
62124;BME280;48110;47.532;19.078;2022-12-07T16:47:22;100276.28;;;2.53;100.00
62124;BME280;48110;47.532;19.078;2022-12-07T16:50:28;100272.47;;;2.57;100.00
62124;BME280;48110;47.532;19.078;2022-12-07T16:53:37;100274.50;;;2.65;100.00
62124;BME280;48110;47.532;19.078;2022-12-07T16:56:42;100281.75;;;2.73;100.00
62124;BME280;48110;47.532;19.078;2022-12-07T16:59:48;100286.78;;;2.65;100.00
62124;BME280;48110;47.532;19.078;2022-12-07T17:02:54;100282.25;;;2.44;100.00
62124;BME280;48110;47.532;19.078;2022-12-07T17:06:02;100277.25;;;2.52;100.00
62124;BME280;48110;47.532;19.078;2022-12-07T17:09:08;100283.56;;;2.61;100.00
62124;BME280;48110;47.532;19.078;2022-12-07T17:12:23;100288.66;;;2.40;100.00
62124;BME280;48110;47.532;19.078;2022-12-07T17:15:29;100291.13;;;2.19;100.00
62124;BME280;48110;47.532;19.078;2022-12-07T17:18:37;100295.84;;;2.03;100.00
62124;BME280;48110;47.532;19.078;2022-12-07T17:21:46;100293.03;;;2.06;100.00
62124;BME280;48110;47.532;19.078;2022-12-07T17:24:55;100304.75;;;1.90;100.00
62124;BME280;48110;47.532;19.078;2022-12-07T17:28:05;100304.09;;;1.75;100.00
62124;BME280;48110;47.532;19.078;2022-12-07T17:31:12;100296.56;;;1.59;100.00
62124;BME280;48110;47.532;19.078;2022-12-07T17:34:21;100291.28;;;1.48;100.00
62124;BME280;48110;47.532;19.078;2022-12-07T17:37:34;100295.28;;;1.41;100.00
62124;BME280;48110;47.532;19.078;2022-12-07T17:40:40;100287.28;;;1.31;100.00
62124;BME280;48110;47.532;19.078;2022-12-07T17:43:46;100305.22;;;1.36;100.00
62124;BME280;48110;47.532;19.078;2022-12-07T17:46:54;100297.22;;;1.26;100.00